Time;durP1;ratioP1;P1;durP2;ratioP2;P2;SDS_P1;SDS_P2;PMS_P1;PMS_P2;Temp;Humidity;BMP_temperature;BMP_pressure;BME280_temperature;BME280_humidity;BME280_pressure;Samples;Min_cycle;Max_cycle;Signal;HPM_P1;HPM_P2
2022/05/21 00:01:41;;;;;;;0.97;0.97;;;22.70;72.10;;;;;;5109720;27;43902;-77
2022/05/21 00:04:10;;;;;;;1.00;1.00;;;22.70;72.30;;;;;;5110158;27;43788;-77
2022/05/21 00:06:38;;;;;;;1.10;1.10;;;22.80;71.90;;;;;;5091830;27;43929;-76
2022/05/21 00:09:06;;;;;;;1.00;1.00;;;23.00;72.00;;;;;;5090987;27;45833;-75
2022/05/21 00:11:34;;;;;;;1.00;1.00;;;23.20;70.80;;;;;;5109757;27;43937;-75
2022/05/21 00:14:02;;;;;;;0.93;0.93;;;23.30;70.10;;;;;;5109928;27;43899;-77
2022/05/21 00:16:30;;;;;;;1.00;1.00;;;23.30;69.70;;;;;;5091681;27;44053;-77
2022/05/21 00:18:59;;;;;;;1.13;1.13;;;23.20;69.30;;;;;;5109564;27;43833;-76
2022/05/21 00:21:27;;;;;;;1.17;1.17;;;23.20;69.70;;;;;;5109678;27;43416;-75
2022/05/21 00:23:55;;;;;;;1.43;1.00;;;23.10;69.50;;;;;;5091036;27;44026;-75
2022/05/21 00:26:25;;;;;;;1.00;1.00;;;23.00;69.60;;;;;;5110313;27;44090;-76
2022/05/21 00:28:53;;;;;;;0.90;0.90;;;22.90;69.70;;;;;;5109146;27;43939;-75
2022/05/21 00:31:21;;;;;;;0.97;0.97;;;22.80;71.00;;;;;;5109753;27;43397;-75
2022/05/21 00:33:49;;;;;;;1.00;1.00;;;22.80;71.90;;;;;;5090831;27;43859;-76
2022/05/21 00:36:18;;;;;;;0.90;0.90;;;22.90;71.20;;;;;;5110097;27;43990;-77
2022/05/21 00:38:46;;;;;;;1.00;1.00;;;23.10;70.70;;;;;;5109189;27;43904;-76
2022/05/21 00:41:15;;;;;;;1.00;1.00;;;23.10;70.20;;;;;;5109355;27;43918;-76
2022/05/21 00:43:45;;;;;;;1.00;1.00;;;23.00;70.10;;;;;;5109074;27;43940;-76
2022/05/21 00:46:15;;;;;;;0.90;0.90;;;22.90;69.70;;;;;;5109775;27;43991;-75
2022/05/21 00:48:43;;;;;;;0.90;0.90;;;22.90;69.60;;;;;;5109113;27;43598;-77
2022/05/21 00:51:14;;;;;;;0.90;0.90;;;22.80;70.50;;;;;;5090651;27;44603;-77
2022/05/21 00:53:43;;;;;;;1.10;1.10;;;22.80;70.00;;;;;;5108611;27;43946;-75
2022/05/21 00:56:11;;;;;;;0.90;0.90;;;22.70;70.00;;;;;;5109289;27;43432;-75
2022/05/21 01:01:25;;;;;;;1.00;1.00;;;22.70;72.00;;;;;;5109403;27;43903;-77
2022/05/21 01:03:53;;;;;;;0.90;0.90;;;22.80;71.60;;;;;;5108958;27;43930;-76
2022/05/21 01:06:21;;;;;;;1.17;0.90;;;23.00;71.10;;;;;;5109514;27;43466;-78
2022/05/21 01:08:50;;;;;;;0.87;0.87;;;23.20;70.60;;;;;;5109008;27;43854;-75
2022/05/21 01:11:19;;;;;;;0.80;0.80;;;23.30;69.90;;;;;;5090443;27;46040;-75
2022/05/21 01:13:48;;;;;;;0.90;0.90;;;23.30;69.20;;;;;;5109141;27;43886;-76
2022/05/21 01:16:16;;;;;;;0.80;0.80;;;23.20;69.10;;;;;;5109476;27;43784;-77
2022/05/21 01:18:44;;;;;;;0.80;0.80;;;23.10;69.50;;;;;;5089829;27;46986;-76
2022/05/21 01:21:12;;;;;;;1.07;1.07;;;23.00;69.40;;;;;;5108958;27;43957;-76
2022/05/21 01:23:41;;;;;;;0.93;0.93;;;22.90;69.30;;;;;;5108813;27;43950;-75
2022/05/21 01:26:15;;;;;;;1.00;1.00;;;22.90;69.60;;;;;;5109136;27;43891;-76
2022/05/21 01:28:44;;;;;;;0.77;0.77;;;22.80;71.20;;;;;;5089904;27;47383;-76
2022/05/21 01:31:12;;;;;;;0.87;0.87;;;22.80;71.60;;;;;;5108498;27;44043;-77
2022/05/21 01:33:42;;;;;;;0.90;0.90;;;22.90;71.20;;;;;;5089842;27;43978;-76
2022/05/21 01:36:10;;;;;;;1.10;1.10;;;23.00;71.00;;;;;;5108830;27;43925;-76
2022/05/21 01:38:38;;;;;;;0.80;0.80;;;23.00;71.30;;;;;;5108200;27;43938;-76
2022/05/21 01:41:09;;;;;;;1.00;1.00;;;23.00;70.40;;;;;;5108234;27;43455;-76
2022/05/21 01:46:23;;;;;;;0.97;0.97;;;22.80;69.80;;;;;;5108254;27;44045;-76
2022/05/21 01:48:51;;;;;;;0.90;0.90;;;22.70;70.00;;;;;;5108497;27;44018;-75
2022/05/21 01:51:19;;;;;;;0.70;0.70;;;22.70;70.20;;;;;;5089117;27;45717;-76
2022/05/21 01:53:47;;;;;;;0.80;0.80;;;22.70;70.40;;;;;;5108852;27;43977;-76
2022/05/21 01:56:16;;;;;;;0.83;0.83;;;22.60;72.00;;;;;;5090144;27;43955;-76
2022/05/21 01:58:44;;;;;;;1.00;1.00;;;22.70;72.20;;;;;;5089661;27;45844;-75
2022/05/21 02:01:12;;;;;;;0.90;0.90;;;22.80;72.50;;;;;;5107757;27;44056;-75
2022/05/21 02:03:40;;;;;;;1.00;1.00;;;23.00;71.10;;;;;;5107926;27;43954;-76
2022/05/21 02:06:08;;;;;;;0.80;0.80;;;23.10;70.30;;;;;;5089218;27;43541;-76
2022/05/21 02:08:36;;;;;;;0.90;0.90;;;23.20;70.10;;;;;;5089374;27;46487;-75
2022/05/21 02:11:04;;;;;;;0.80;0.80;;;23.20;70.00;;;;;;5089529;27;44879;-76
2022/05/21 02:13:34;;;;;;;0.80;0.80;;;23.00;70.00;;;;;;5108154;27;43942;-75
2022/05/21 02:16:02;;;;;;;0.97;0.97;;;23.00;69.80;;;;;;5108710;27;43993;-76
2022/05/21 02:18:31;;;;;;;0.70;0.70;;;22.90;69.70;;;;;;5107514;27;43927;-74
2022/05/21 02:20:59;;;;;;;0.80;0.80;;;22.80;69.80;;;;;;5088842;27;44844;-76
2022/05/21 02:23:27;;;;;;;0.80;0.80;;;22.70;71.40;;;;;;5108043;27;43968;-76
2022/05/21 02:25:59;;;;;;;0.77;0.77;;;22.80;71.90;;;;;;5108097;27;43796;-76
2022/05/21 02:28:27;;;;;;;0.90;0.90;;;22.90;71.60;;;;;;5107634;27;44067;-76
2022/05/21 02:30:57;;;;;;;0.90;0.90;;;23.00;71.00;;;;;;5107314;27;43903;-76
2022/05/21 02:33:25;;;;;;;0.90;0.90;;;23.00;70.80;;;;;;5107446;27;43947;-76
2022/05/21 02:35:54;;;;;;;0.90;0.90;;;22.90;70.50;;;;;;5107755;27;43907;-77
2022/05/21 02:41:10;;;;;;;0.60;0.60;;;22.80;70.00;;;;;;5088504;27;44985;-76
2022/05/21 02:43:39;;;;;;;0.77;0.77;;;22.70;70.10;;;;;;5107515;27;43369;-77
2022/05/21 02:46:09;;;;;;;0.80;0.80;;;22.70;70.30;;;;;;5107840;27;43806;-76
2022/05/21 02:48:38;;;;;;;0.80;0.80;;;22.60;70.30;;;;;;5107407;27;43903;-75
2022/05/21 02:51:09;;;;;;;0.97;0.97;;;22.60;70.80;;;;;;5107581;27;44064;-75
2022/05/21 02:53:37;;;;;;;0.93;0.93;;;22.60;72.20;;;;;;5107495;27;43966;-75
2022/05/21 02:56:06;;;;;;;0.70;0.70;;;22.70;72.30;;;;;;5107489;27;43993;-76
2022/05/21 02:58:34;;;;;;;0.80;0.80;;;22.90;71.70;;;;;;5107176;27;44011;-76
2022/05/21 03:01:02;;;;;;;0.80;0.80;;;23.00;70.80;;;;;;5088544;27;43995;-75
2022/05/21 03:03:32;;;;;;;0.80;0.80;;;23.10;70.20;;;;;;5088572;27;43962;-77
2022/05/21 03:06:00;;;;;;;0.63;0.63;;;23.10;70.10;;;;;;5107762;27;43950;-76
2022/05/21 03:11:15;;;;;;;0.70;0.70;;;23.00;69.90;;;;;;5088455;27;45632;-78
2022/05/21 03:13:43;;;;;;;0.60;0.60;;;22.90;69.70;;;;;;5107275;27;43322;-76
2022/05/21 03:16:11;;;;;;;0.80;0.80;;;22.80;69.80;;;;;;5088813;27;43538;-77
2022/05/21 03:18:40;;;;;;;0.90;0.90;;;22.70;69.90;;;;;;5109047;27;43764;-75
2022/05/21 03:21:08;;;;;;;0.90;0.90;;;22.70;71.00;;;;;;5110452;27;44095;-77
2022/05/21 03:23:37;;;;;;;0.70;0.70;;;22.60;71.90;;;;;;5110873;27;44047;-77
2022/05/21 03:26:05;;;;;;;0.90;0.90;;;22.80;71.70;;;;;;5110954;27;43725;-77
2022/05/21 03:28:33;;;;;;;0.73;0.73;;;22.90;71.20;;;;;;5110549;27;44206;-75
2022/05/21 03:31:02;;;;;;;0.80;0.80;;;22.90;71.20;;;;;;5110446;27;44073;-75
2022/05/21 03:33:30;;;;;;;0.80;0.80;;;22.90;70.50;;;;;;5110362;27;43934;-77
2022/05/21 03:35:59;;;;;;;0.73;0.73;;;22.80;70.10;;;;;;5110793;27;43853;-76
2022/05/21 03:38:27;;;;;;;0.70;0.70;;;22.70;69.90;;;;;;5105537;27;44685;-76
2022/05/21 03:40:55;;;;;;;0.80;0.80;;;22.70;70.10;;;;;;5089665;28;43961;-75
2022/05/21 03:43:24;;;;;;;0.70;0.70;;;22.60;70.30;;;;;;5089884;28;43387;-75
2022/05/21 03:45:52;;;;;;;0.90;0.90;;;22.50;70.40;;;;;;5071129;28;44242;-78
2022/05/21 03:48:20;;;;;;;0.80;0.80;;;22.50;70.70;;;;;;5088430;28;43968;-77
2022/05/21 03:50:48;;;;;;;0.87;0.87;;;22.50;72.10;;;;;;5071527;28;44764;-77
2022/05/21 03:53:18;;;;;;;0.80;0.80;;;22.60;72.30;;;;;;5089808;28;44006;-77
2022/05/21 03:55:45;;;;;;;0.80;0.80;;;22.80;71.80;;;;;;5089790;28;43981;-75
2022/05/21 03:58:15;;;;;;;0.93;0.93;;;22.90;70.90;;;;;;5071111;28;45871;-77
2022/05/21 04:00:43;;;;;;;0.80;0.80;;;23.10;70.60;;;;;;5089523;28;43420;-74
2022/05/21 04:03:11;;;;;;;0.80;0.80;;;23.10;70.40;;;;;;5088276;28;43912;-76
2022/05/21 04:05:39;;;;;;;0.70;0.70;;;23.10;70.10;;;;;;5089678;28;43808;-75
2022/05/21 04:08:07;;;;;;;0.70;0.70;;;23.00;69.90;;;;;;5087949;28;46849;-75
2022/05/21 04:10:37;;;;;;;0.80;0.80;;;22.90;69.40;;;;;;5089240;28;43317;-76
2022/05/21 04:13:06;;;;;;;0.80;0.80;;;22.80;69.60;;;;;;5089419;28;43370;-78
2022/05/21 04:15:35;;;;;;;0.93;0.93;;;22.70;69.80;;;;;;5089669;28;43963;-77
2022/05/21 04:18:05;;;;;;;0.70;0.70;;;22.70;71.70;;;;;;5089210;28;43917;-76
2022/05/21 04:20:33;;;;;;;0.80;0.80;;;22.70;71.90;;;;;;5089164;28;43678;-75
2022/05/21 04:23:01;;;;;;;0.83;0.83;;;22.80;71.50;;;;;;5089504;28;43952;-75
2022/05/21 04:25:29;;;;;;;0.80;0.80;;;22.90;71.20;;;;;;5071106;28;44004;-76
2022/05/21 04:27:59;;;;;;;0.80;0.80;;;22.90;71.10;;;;;;5088722;27;43979;-75
2022/05/21 04:30:28;;;;;;;0.80;0.80;;;22.80;70.30;;;;;;5087593;28;43896;-76
2022/05/21 04:32:57;;;;;;;0.90;0.90;;;22.80;70.00;;;;;;5070447;28;43904;-75
2022/05/21 04:36:17;;;;;;;0.80;0.80;;;22.70;70.00;;;;;;5070508;28;44084;-75
2022/05/21 04:38:14;;;;;;;1.10;1.10;;;22.60;70.10;;;;;;5069973;28;45579;-76
2022/05/21 04:40:42;;;;;;;0.80;0.80;;;22.50;70.30;;;;;;5088660;28;44048;-76
2022/05/21 04:43:11;;;;;;;0.80;0.80;;;22.50;70.50;;;;;;5089092;28;43849;-75
2022/05/21 04:45:39;;;;;;;0.80;0.80;;;22.40;71.80;;;;;;5070018;28;43872;-76
2022/05/21 04:48:08;;;;;;;1.10;0.90;;;22.50;72.20;;;;;;5070294;28;45548;-76
2022/05/21 04:50:37;;;;;;;0.80;0.80;;;22.70;72.00;;;;;;5089040;28;43857;-74
2022/05/21 04:53:05;;;;;;;0.90;0.90;;;22.80;71.30;;;;;;5070574;28;43743;-75
2022/05/21 04:55:33;;;;;;;0.80;0.80;;;23.00;70.80;;;;;;5087621;28;44011;-76
2022/05/21 04:58:01;;;;;;;0.90;0.90;;;23.00;70.40;;;;;;5089017;28;43930;-77
2022/05/21 05:00:31;;;;;;;0.90;0.90;;;23.00;70.60;;;;;;5070183;28;45733;-77
2022/05/21 05:02:58;;;;;;;0.80;0.80;;;22.90;69.70;;;;;;5070030;28;43975;-76
2022/05/21 05:05:26;;;;;;;0.83;0.83;;;22.80;69.60;;;;;;5087472;28;43939;-76
2022/05/21 05:07:54;;;;;;;0.90;0.90;;;22.70;69.80;;;;;;5088611;28;44272;-76
2022/05/21 05:10:22;;;;;;;0.90;0.90;;;22.60;70.00;;;;;;5088449;28;44141;-77
2022/05/21 05:12:50;;;;;;;1.00;1.00;;;22.60;70.90;;;;;;5089085;28;44101;-75
2022/05/21 05:15:18;;;;;;;0.90;0.90;;;22.60;72.00;;;;;;5089574;28;43995;-75
2022/05/21 05:17:48;;;;;;;0.80;0.80;;;22.70;72.00;;;;;;5088754;28;43956;-77
2022/05/21 05:20:16;;;;;;;0.90;0.90;;;22.80;71.40;;;;;;5088264;28;44026;-75
2022/05/21 05:22:44;;;;;;;0.90;0.90;;;22.80;71.20;;;;;;5088175;28;43890;-75
2022/05/21 05:25:12;;;;;;;0.90;0.90;;;22.80;70.50;;;;;;5088546;28;43994;-76
2022/05/21 05:27:40;;;;;;;0.90;0.90;;;22.70;69.90;;;;;;5087448;28;43983;-77
2022/05/21 05:30:10;;;;;;;0.90;0.90;;;22.70;70.00;;;;;;5087932;28;43326;-76
2022/05/21 05:32:37;;;;;;;0.90;0.90;;;22.60;70.70;;;;;;5088209;28;43419;-76
2022/05/21 05:35:08;;;;;;;0.90;0.90;;;22.50;70.30;;;;;;5088105;28;44051;-77
2022/05/21 05:37:36;;;;;;;0.80;0.80;;;22.50;70.50;;;;;;5087569;28;45109;-77
2022/05/21 05:40:05;;;;;;;0.70;0.70;;;22.40;70.60;;;;;;5087182;28;43427;-76
2022/05/21 05:42:34;;;;;;;0.80;0.80;;;22.40;71.90;;;;;;5086546;28;43992;-76
2022/05/21 05:45:05;;;;;;;0.80;0.80;;;22.50;72.20;;;;;;5087802;28;44030;-76
2022/05/21 05:47:33;;;;;;;0.90;0.90;;;22.60;71.80;;;;;;5087644;28;44954;-75
2022/05/21 05:50:01;;;;;;;0.80;0.80;;;22.80;71.20;;;;;;5087600;28;43880;-75
2022/05/21 05:52:30;;;;;;;0.80;0.80;;;22.90;70.60;;;;;;5069561;28;43396;-77
2022/05/21 05:54:59;;;;;;;0.83;0.83;;;23.00;70.20;;;;;;5088100;28;43774;-77
2022/05/21 05:57:27;;;;;;;0.80;0.80;;;23.00;70.00;;;;;;5086618;28;45384;-78
2022/05/21 05:59:55;;;;;;;0.80;0.80;;;23.00;70.00;;;;;;5087847;28;44049;-76
2022/05/21 06:05:12;;;;;;;0.77;0.77;;;22.80;69.60;;;;;;5087508;28;44271;-77
2022/05/21 06:07:45;;;;;;;1.40;0.80;;;22.60;69.60;;;;;;5069005;28;46218;-75
2022/05/21 06:10:14;;;;;;;0.80;0.80;;;22.60;70.90;;;;;;5087572;28;43963;-76
2022/05/21 06:12:42;;;;;;;0.93;0.93;;;22.60;71.90;;;;;;5086073;28;43346;-76
2022/05/21 06:15:11;;;;;;;0.90;0.90;;;22.60;71.60;;;;;;5068871;28;44306;-76
2022/05/21 06:17:39;;;;;;;1.10;1.10;;;22.70;71.10;;;;;;5068606;28;45720;-76
2022/05/21 06:20:08;;;;;;;0.70;0.70;;;22.80;71.10;;;;;;5087564;28;43947;-76
2022/05/21 06:22:36;;;;;;;0.80;0.80;;;22.70;70.50;;;;;;5087548;28;43888;-75
2022/05/21 06:25:07;;;;;;;0.80;0.80;;;22.70;70.10;;;;;;5086162;28;43987;-75
2022/05/21 06:27:35;;;;;;;0.80;0.80;;;22.60;69.90;;;;;;5087459;28;43852;-74
2022/05/21 06:30:04;;;;;;;0.90;0.90;;;22.50;70.00;;;;;;5068423;28;45278;-77
2022/05/21 06:32:32;;;;;;;0.90;0.90;;;22.50;70.20;;;;;;5068642;28;43980;-77
2022/05/21 06:35:03;;;;;;;0.90;0.90;;;22.40;70.30;;;;;;5085924;28;43381;-75
2022/05/21 06:37:31;;;;;;;1.10;1.10;;;22.40;70.50;;;;;;5086693;28;45009;-75
2022/05/21 06:39:59;;;;;;;1.00;1.00;;;22.30;71.90;;;;;;5087343;28;43991;-75
2022/05/21 06:42:28;;;;;;;0.90;0.90;;;22.40;72.00;;;;;;5086249;28;43470;-77
2022/05/21 06:44:57;;;;;;;0.93;0.93;;;22.60;71.70;;;;;;5069072;28;43559;-74
2022/05/21 06:47:25;;;;;;;0.90;0.90;;;22.70;71.00;;;;;;5086665;28;43946;-77
2022/05/21 06:49:54;;;;;;;1.40;1.00;;;22.90;70.30;;;;;;5068633;28;44993;-75
2022/05/21 06:52:24;;;;;;;1.00;1.00;;;22.90;70.10;;;;;;5089340;27;43951;-75
2022/05/21 06:54:52;;;;;;;0.90;0.90;;;22.90;70.20;;;;;;5072601;28;44090;-74
2022/05/21 06:57:28;;;;;;;1.10;1.10;;;22.80;70.00;;;;;;5088747;28;45777;-75
2022/05/21 06:59:57;;;;;;;0.70;0.70;;;22.70;69.60;;;;;;5091182;28;43979;-75
2022/05/21 07:02:26;;;;;;;0.90;0.90;;;22.60;69.60;;;;;;5090144;28;43916;-75
2022/05/21 07:07:44;;;;;;;1.17;0.70;;;22.50;71.30;;;;;;5088612;28;45387;-73
2022/05/21 07:10:19;;;;;;;1.00;1.00;;;22.50;71.90;;;;;;5090026;28;43979;-74
2022/05/21 07:12:47;;;;;;;0.93;0.87;;;22.60;71.50;;;;;;5090391;28;43951;-74
2022/05/21 07:15:17;;;;;;;1.47;1.10;;;22.70;71.40;;;;;;5090711;28;44006;-75
2022/05/21 07:17:45;;;;;;;1.03;0.90;;;22.70;70.90;;;;;;5090036;28;43955;-75
2022/05/21 07:20:15;;;;;;;0.77;0.77;;;22.60;70.50;;;;;;5090058;28;43987;-75
2022/05/21 07:22:45;;;;;;;0.80;0.80;;;22.50;70.00;;;;;;5090363;28;43379;-74
2022/05/21 07:25:14;;;;;;;0.90;0.90;;;22.50;70.00;;;;;;5070896;28;44004;-75
2022/05/21 07:27:42;;;;;;;0.97;0.97;;;22.40;70.10;;;;;;5071404;28;46835;-74
2022/05/21 07:30:11;;;;;;;0.97;0.97;;;22.40;70.30;;;;;;5089964;28;43919;-74
2022/05/21 07:32:41;;;;;;;0.77;0.77;;;22.30;70.40;;;;;;5089870;28;43307;-74
2022/05/21 07:35:11;;;;;;;1.70;0.93;;;22.30;70.80;;;;;;5090032;28;43816;-75
2022/05/21 07:37:46;;;;;;;1.33;0.80;;;22.30;71.90;;;;;;5089683;28;43963;-74
2022/05/21 07:40:15;;;;;;;0.80;0.80;;;22.40;72.20;;;;;;5089955;28;43938;-75
2022/05/21 07:42:43;;;;;;;0.90;0.90;;;22.60;71.80;;;;;;5089762;28;43798;-75
2022/05/21 07:45:12;;;;;;;0.80;0.80;;;22.70;71.00;;;;;;5089565;28;43912;-75
2022/05/21 07:47:41;;;;;;;1.00;1.00;;;22.80;70.70;;;;;;5089536;28;44003;-75
2022/05/21 07:50:10;;;;;;;1.20;1.10;;;22.80;70.70;;;;;;5071347;28;45215;-74
2022/05/21 07:52:38;;;;;;;0.97;0.97;;;22.70;70.30;;;;;;5071289;28;43999;-75
2022/05/21 07:55:07;;;;;;;0.90;0.90;;;22.60;69.70;;;;;;5071693;28;44163;-75
2022/05/21 07:57:35;;;;;;;1.50;0.90;;;22.50;69.70;;;;;;5087834;28;46005;-76
2022/05/21 08:00:05;;;;;;;0.90;0.90;;;22.40;69.80;;;;;;5089338;28;44027;-76
2022/05/21 08:02:42;;;;;;;0.80;0.80;;;22.40;70.10;;;;;;5086059;28;44076;-76
2022/05/21 08:05:10;;;;;;;1.10;1.10;;;22.30;71.50;;;;;;5071164;28;43975;-76
2022/05/21 08:07:38;;;;;;;1.10;1.10;;;22.40;71.90;;;;;;5089307;28;43915;-75
2022/05/21 08:10:06;;;;;;;1.43;1.10;;;22.50;71.60;;;;;;5089313;28;43948;-76
2022/05/21 08:12:34;;;;;;;1.00;0.90;;;22.60;71.30;;;;;;5088554;28;43967;-75
2022/05/21 08:15:02;;;;;;;2.37;1.10;;;22.60;70.70;;;;;;5071729;28;43848;-75
2022/05/21 08:17:30;;;;;;;1.67;1.23;;;22.50;70.00;;;;;;5089077;28;43890;-76
2022/05/21 08:20:00;;;;;;;1.03;1.03;;;22.40;69.80;;;;;;5070414;28;45057;-76
2022/05/21 08:27:59;;;;;;;1.53;1.43;;;22.30;70.30;;;;;;5088704;28;43944;-76
2022/05/21 08:30:27;;;;;;;2.53;1.93;;;22.20;70.40;;;;;;5070848;28;45390;-76
2022/05/21 08:33:00;;;;;;;1.93;1.60;;;22.20;71.60;;;;;;5087658;28;43929;-74
2022/05/21 08:35:29;;;;;;;1.57;1.47;;;22.30;72.00;;;;;;5089364;28;43957;-75
2022/05/21 08:37:58;;;;;;;2.37;1.70;;;22.40;71.70;;;;;;5069980;28;45657;-75
2022/05/21 08:40:40;;;;;;;2.77;2.00;;;22.60;71.30;;;;;;5088701;28;43998;-75
2022/05/21 08:43:12;;;;;;;1.77;1.67;;;22.70;70.60;;;;;;5088869;28;43967;-75
2022/05/21 08:45:46;;;;;;;3.73;2.33;;;22.70;70.30;;;;;;5087420;28;43407;-75
2022/05/21 08:48:14;;;;;;;2.00;1.83;;;22.70;70.10;;;;;;5088335;28;44598;-77
2022/05/21 08:50:46;;;;;;;1.87;1.77;;;22.60;69.70;;;;;;5070190;28;45354;-74
2022/05/21 08:53:16;;;;;;;2.07;1.87;;;22.50;69.40;;;;;;5088826;28;43462;-74
2022/05/21 08:55:45;;;;;;;2.20;2.00;;;22.40;69.60;;;;;;5088684;28;44089;-74
2022/05/21 08:58:18;;;;;;;1.93;1.80;;;22.30;69.80;;;;;;5088620;28;43915;-76
2022/05/21 09:00:47;;;;;;;3.53;2.23;;;22.30;71.20;;;;;;5088444;28;43966;-75
2022/05/21 09:03:17;;;;;;;2.23;2.10;;;22.30;71.70;;;;;;5088402;28;43763;-77
2022/05/21 09:05:48;;;;;;;2.43;2.13;;;22.40;71.70;;;;;;5070502;28;43991;-74
2022/05/21 09:08:19;;;;;;;2.37;2.17;;;22.60;71.10;;;;;;5069502;28;45861;-77
2022/05/21 09:10:53;;;;;;;2.30;2.20;;;22.60;70.70;;;;;;5088346;28;43383;-76
2022/05/21 09:14:03;;;;;;;3.50;2.00;;;22.50;70.30;;;;;;5088465;28;43939;-76
2022/05/21 09:19:23;;;;;;;2.40;2.20;;;22.30;69.80;;;;;;5066751;28;45339;-77
2022/05/21 09:21:58;;;;;;;2.60;2.00;;;22.30;70.00;;;;;;5068179;28;43348;-76
2022/05/21 09:24:37;;;;;;;2.50;2.23;;;22.20;70.20;;;;;;5067772;28;43863;-76
2022/05/21 09:27:05;;;;;;;3.67;2.70;;;22.20;70.30;;;;;;5067945;28;44240;-75
2022/05/21 09:29:35;;;;;;;2.90;2.20;;;22.10;71.10;;;;;;5067457;28;43908;-75
2022/05/21 09:32:17;;;;;;;3.50;2.33;;;22.20;71.90;;;;;;5066391;28;44921;-75
2022/05/21 09:34:45;;;;;;;2.20;2.10;;;22.30;71.70;;;;;;5066181;28;43335;-75
2022/05/21 09:37:21;;;;;;;2.60;2.40;;;22.50;71.30;;;;;;5104396;27;43954;-73
2022/05/21 09:39:49;;;;;;;2.30;2.20;;;22.70;70.70;;;;;;5104416;27;44213;-71
2022/05/21 09:45:26;;;;;;;2.50;2.30;;;22.80;70.00;;;;;;5105188;27;43868;-72
2022/05/21 09:47:55;;;;;;;2.40;2.30;;;22.70;69.80;;;;;;5104153;27;43914;-73
2022/05/21 09:50:24;;;;;;;4.00;2.30;;;22.60;69.30;;;;;;5104414;27;44145;-72
2022/05/21 09:52:53;;;;;;;2.17;2.07;;;22.50;69.30;;;;;;5104616;27;43923;-72
2022/05/21 09:55:24;;;;;;;2.83;2.07;;;22.40;69.50;;;;;;5105163;27;43754;-72
2022/05/21 09:57:58;;;;;;;7.83;4.93;;;22.30;69.60;;;;;;5104201;27;44770;-72
2022/05/21 10:00:28;;;;;;;12.53;6.80;;;22.30;67.50;;;;;;5104024;27;43924;-73
2022/05/21 10:02:58;;;;;;;7.13;6.27;;;22.30;65.20;;;;;;5102582;27;43928;-73
2022/05/21 10:05:28;;;;;;;9.83;6.10;;;22.30;66.10;;;;;;5104710;27;43997;-72
2022/05/21 10:11:03;;;;;;;8.53;5.40;;;22.20;64.50;;;;;;5102408;27;44705;-72
2022/05/21 10:13:36;;;;;;;5.43;4.40;;;22.20;65.30;;;;;;5104240;27;43910;-72
2022/05/21 10:16:14;;;;;;;6.10;4.40;;;22.10;65.00;;;;;;5104391;27;44026;-72
2022/05/21 10:18:46;;;;;;;9.57;3.93;;;22.10;64.90;;;;;;5102490;27;46006;-72
2022/05/21 10:21:20;;;;;;;4.63;3.90;;;22.00;64.60;;;;;;5103673;27;44160;-72
2022/05/21 10:23:50;;;;;;;4.27;3.23;;;22.00;65.00;;;;;;5104415;27;43877;-73
2022/05/21 10:26:37;;;;;;;4.57;3.50;;;22.00;67.30;;;;;;5102997;27;44229;-72
2022/05/21 10:29:33;;;;;;;4.87;3.40;;;22.10;68.70;;;;;;5103670;27;44899;-72
2022/05/21 10:32:06;;;;;;;4.10;3.63;;;22.30;67.40;;;;;;5103643;27;43965;-72
2022/05/21 10:34:41;;;;;;;5.13;3.40;;;22.40;67.20;;;;;;5103792;27;43977;-72
2022/05/21 10:37:18;;;;;;;3.33;3.03;;;22.60;66.60;;;;;;5103895;27;43894;-73
2022/05/21 10:40:00;;;;;;;4.07;3.63;;;22.70;66.50;;;;;;5103580;27;43764;-72
2022/05/21 10:42:38;;;;;;;3.27;2.97;;;22.70;66.40;;;;;;5103652;27;43914;-72
2022/05/21 10:45:14;;;;;;;4.23;2.80;;;22.60;66.20;;;;;;5102219;27;43922;-72
2022/05/21 10:48:09;;;;;;;2.90;2.70;;;22.50;65.80;;;;;;5095779;27;43875;-72
2022/05/21 10:50:39;;;;;;;2.70;2.50;;;22.40;65.60;;;;;;5089804;27;44289;-72
2022/05/21 10:53:20;;;;;;;3.00;2.73;;;22.30;65.80;;;;;;5089977;28;43946;-74
2022/05/21 10:55:53;;;;;;;3.87;2.77;;;22.20;67.60;;;;;;5089901;28;43890;-72
2022/05/21 10:58:46;;;;;;;2.90;2.57;;;22.20;68.40;;;;;;5089033;28;43525;-73
2022/05/21 11:01:15;;;;;;;4.13;2.50;;;22.30;68.10;;;;;;5089501;28;44330;-72
2022/05/21 11:03:58;;;;;;;6.23;2.90;;;22.40;68.10;;;;;;5089474;27;43991;-72
2022/05/21 11:06:43;;;;;;;2.50;2.30;;;22.40;67.50;;;;;;5089637;28;43994;-71
2022/05/21 11:09:15;;;;;;;2.63;2.43;;;22.30;66.80;;;;;;5081300;28;44150;-73
2022/05/21 11:11:51;;;;;;;2.47;2.37;;;22.30;66.60;;;;;;5087818;28;46195;-73
2022/05/21 11:14:21;;;;;;;2.47;2.37;;;22.20;66.80;;;;;;5090314;28;43416;-72
2022/05/21 11:16:51;;;;;;;2.80;2.50;;;22.20;67.70;;;;;;5089644;28;43446;-72
2022/05/21 11:19:26;;;;;;;2.30;2.20;;;22.10;67.00;;;;;;5090118;27;43935;-72
2022/05/21 11:22:03;;;;;;;2.80;2.60;;;22.10;67.30;;;;;;5089217;28;44109;-72
2022/05/21 11:24:33;;;;;;;2.30;2.20;;;22.10;68.60;;;;;;5089301;27;43908;-73
2022/05/21 11:27:03;;;;;;;5.83;2.87;;;22.10;67.60;;;;;;5089379;27;43956;-72
2022/05/21 11:29:36;;;;;;;5.47;2.40;;;22.10;65.30;;;;;;5089736;28;43812;-72
2022/05/21 11:37:43;;;;;;;9.17;2.43;;;22.50;63.50;;;;;;5089072;28;43996;-73
2022/05/21 11:40:15;;;;;;;15.07;2.57;;;22.50;63.50;;;;;;5088005;28;44235;-73
2022/05/21 11:42:50;;;;;;;2.80;2.03;;;22.40;63.30;;;;;;5087372;27;43949;-72
2022/05/21 11:45:22;;;;;;;4.67;2.30;;;22.40;64.40;;;;;;5089314;27;43946;-73
2022/05/21 11:47:53;;;;;;;4.80;2.10;;;22.30;64.50;;;;;;5089030;27;43867;-72
2022/05/21 11:50:29;;;;;;;4.20;1.80;;;22.20;64.40;;;;;;5089423;27;43788;-72
2022/05/21 11:53:34;;;;;;;1.80;1.60;;;22.10;64.10;;;;;;5088657;27;43807;-73
2022/05/21 11:56:08;;;;;;;7.67;3.10;;;22.10;62.90;;;;;;5087070;28;46355;-73
2022/05/21 11:59:23;;;;;;;5.60;2.40;;;22.20;62.40;;;;;;5086399;27;43358;-73
2022/05/21 12:02:10;;;;;;;3.07;2.20;;;22.20;61.50;;;;;;5088994;28;43433;-73
2022/05/21 12:04:52;;;;;;;2.07;1.93;;;22.20;61.80;;;;;;5088320;27;43872;-72
2022/05/21 12:07:53;;;;;;;2.47;1.87;;;22.10;62.00;;;;;;5087454;28;44562;-72
2022/05/21 12:10:24;;;;;;;2.47;2.10;;;22.10;62.10;;;;;;5088818;27;44088;-73
2022/05/21 12:13:13;;;;;;;3.13;2.00;;;22.10;62.00;;;;;;5089132;28;43925;-73
2022/05/21 12:15:48;;;;;;;1.80;1.70;;;22.00;62.20;;;;;;5088396;28;43916;-73
2022/05/21 12:18:33;;;;;;;1.63;1.50;;;22.00;62.50;;;;;;5088252;28;44116;-73
2022/05/21 12:21:01;;;;;;;1.63;1.37;;;21.90;62.20;;;;;;5086902;28;43976;-72
2022/05/21 12:24:00;;;;;;;3.03;1.80;;;21.90;62.50;;;;;;5087504;28;44001;-73
2022/05/21 12:26:32;;;;;;;1.67;1.57;;;22.00;62.00;;;;;;5065197;27;44097;-73
2022/05/21 12:29:09;;;;;;;2.90;1.60;;;22.10;62.70;;;;;;5086894;28;45935;-72
2022/05/21 12:31:39;;;;;;;2.17;1.30;;;22.20;62.90;;;;;;5088282;28;43755;-72
2022/05/21 12:34:33;;;;;;;2.20;1.40;;;22.40;63.00;;;;;;5088854;28;43997;-72
2022/05/21 12:37:06;;;;;;;1.50;1.40;;;22.40;62.60;;;;;;5088043;28;44099;-72
2022/05/21 12:39:43;;;;;;;1.50;1.40;;;22.40;62.00;;;;;;5088882;27;43874;-72
2022/05/21 12:42:15;;;;;;;1.30;1.30;;;22.30;61.50;;;;;;5087172;28;43414;-72
2022/05/21 12:44:45;;;;;;;1.33;1.23;;;22.20;61.60;;;;;;5088956;28;44006;-72
2022/05/21 12:47:14;;;;;;;1.10;1.10;;;22.10;61.90;;;;;;5088345;27;43993;-72
2022/05/21 12:49:49;;;;;;;1.20;1.20;;;22.10;62.20;;;;;;5087184;27;44717;-71
2022/05/21 12:52:22;;;;;;;2.07;1.47;;;22.00;65.20;;;;;;5088248;27;43934;-72
2022/05/21 12:54:50;;;;;;;1.40;1.40;;;22.10;65.30;;;;;;5088567;28;43450;-73
2022/05/21 12:57:19;;;;;;;1.20;1.20;;;22.20;65.20;;;;;;5086457;28;46089;-72
2022/05/21 12:59:47;;;;;;;1.50;1.27;;;22.20;65.00;;;;;;5087539;28;43927;-72
2022/05/21 13:02:16;;;;;;;1.27;1.23;;;22.20;63.50;;;;;;5086213;28;44108;-73
2022/05/21 13:04:45;;;;;;;1.00;1.00;;;22.10;63.10;;;;;;5087972;27;43895;-73
2022/05/21 13:07:16;;;;;;;1.37;1.37;;;22.10;63.20;;;;;;5087680;28;44015;-74
2022/05/21 13:09:52;;;;;;;1.20;1.20;;;22.10;63.60;;;;;;5087477;27;43923;-73
2022/05/21 13:12:21;;;;;;;1.80;1.47;;;22.00;63.40;;;;;;5086261;28;43902;-72
2022/05/21 13:14:49;;;;;;;1.20;1.20;;;22.00;63.80;;;;;;5087808;28;43419;-74
2022/05/21 13:17:23;;;;;;;1.30;1.27;;;21.90;64.00;;;;;;5087363;28;43908;-72
2022/05/21 13:20:10;;;;;;;1.40;1.40;;;21.90;65.10;;;;;;5087509;28;44014;-72
2022/05/21 13:22:50;;;;;;;1.47;1.37;;;22.00;66.60;;;;;;5087922;27;43978;-72
2022/05/21 13:25:22;;;;;;;3.60;1.50;;;22.10;66.40;;;;;;5086309;28;43949;-72
2022/05/21 13:27:52;;;;;;;1.33;1.23;;;22.30;66.10;;;;;;5085957;27;46391;-72
2022/05/21 13:30:22;;;;;;;1.60;1.47;;;22.50;65.60;;;;;;5085785;28;44729;-73
2022/05/21 13:32:54;;;;;;;1.50;1.40;;;22.60;65.10;;;;;;5085976;27;43765;-74
2022/05/21 13:35:24;;;;;;;1.87;1.30;;;22.60;65.20;;;;;;5087261;28;43970;-73
2022/05/21 13:37:53;;;;;;;2.10;1.63;;;22.60;65.10;;;;;;5087325;28;43968;-73
2022/05/21 13:40:22;;;;;;;1.57;1.37;;;22.50;64.30;;;;;;5086966;28;43478;-73
2022/05/21 13:42:51;;;;;;;1.30;1.30;;;22.30;64.20;;;;;;5085972;28;43789;-73
2022/05/21 13:45:21;;;;;;;2.17;1.47;;;22.30;64.20;;;;;;5087796;27;44001;-71